createdAt,value
2022-09-16T00:01:14.751Z,24.90
2022-09-16T00:04:04.863Z,25.00
2022-09-16T00:06:53.702Z,25.00
2022-09-16T00:09:44.343Z,25.00
2022-09-16T00:12:33.585Z,25.10
2022-09-16T00:15:22.203Z,25.10
2022-09-16T00:18:12.198Z,25.10
2022-09-16T00:21:02.166Z,25.10
2022-09-16T00:23:51.708Z,25.00
2022-09-16T00:26:42.354Z,25.00
2022-09-16T00:29:31.813Z,25.10
2022-09-16T00:32:21.024Z,25.10
2022-09-16T00:35:10.580Z,25.10
2022-09-16T00:37:59.560Z,25.10
2022-09-16T00:40:51.234Z,25.10
2022-09-16T00:43:53.361Z,25.10
2022-09-16T00:46:45.493Z,25.20
2022-09-16T00:49:34.814Z,25.20
2022-09-16T00:52:24.441Z,25.20
2022-09-16T00:55:17.447Z,25.20
2022-09-16T00:58:10.708Z,25.20
2022-09-16T01:01:01.448Z,25.50
2022-09-16T01:03:52.814Z,25.00
2022-09-16T01:06:42.280Z,25.10
2022-09-16T01:09:32.319Z,25.00
2022-09-16T01:12:21.728Z,24.90
2022-09-16T01:15:13.945Z,25.00
2022-09-16T01:18:14.707Z,25.00
2022-09-16T01:21:26.817Z,25.00
2022-09-16T01:24:50.357Z,25.00
2022-09-16T01:28:10.215Z,25.20
2022-09-16T01:31:11.956Z,25.20
2022-09-16T01:34:08.016Z,25.20
2022-09-16T01:37:05.667Z,25.20
2022-09-16T01:40:07.818Z,25.20
2022-09-16T01:43:06.963Z,25.30
2022-09-16T01:45:58.248Z,25.30
2022-09-16T01:48:54.717Z,25.30
2022-09-16T01:51:49.596Z,25.50
2022-09-16T01:54:44.489Z,25.30
2022-09-16T01:57:38.794Z,25.30
2022-09-16T02:00:27.942Z,25.30
2022-09-16T02:03:22.471Z,25.30
2022-09-16T02:06:16.930Z,25.30
2022-09-16T02:09:08.798Z,25.30
2022-09-16T02:12:06.248Z,25.40
2022-09-16T02:14:58.687Z,25.40
2022-09-16T02:17:52.067Z,25.30
2022-09-16T02:20:44.495Z,25.30
2022-09-16T02:23:39.852Z,25.30
2022-09-16T02:26:32.152Z,25.30
2022-09-16T02:29:27.031Z,25.20
2022-09-16T02:32:17.100Z,25.20
2022-09-16T02:35:09.186Z,25.20
2022-09-16T02:38:01.142Z,25.20
2022-09-16T02:40:55.612Z,25.10
2022-09-16T02:43:45.341Z,25.00
2022-09-16T02:46:41.097Z,25.00
2022-09-16T02:49:38.051Z,25.00
2022-09-16T02:52:37.658Z,25.00
2022-09-16T02:55:37.775Z,24.90
2022-09-16T02:58:28.687Z,24.90
2022-09-16T03:01:19.340Z,24.90
2022-09-16T03:04:08.979Z,24.80
2022-09-16T03:06:58.442Z,24.70
2022-09-16T03:09:50.636Z,24.70
2022-09-16T03:12:52.118Z,24.70
2022-09-16T03:16:01.028Z,24.60
2022-09-16T03:19:00.592Z,24.60
2022-09-16T03:21:55.626Z,24.50
2022-09-16T03:24:53.881Z,24.40
2022-09-16T03:27:49.645Z,24.50
2022-09-16T03:30:42.125Z,24.40
2022-09-16T03:33:38.133Z,24.40
2022-09-16T03:36:33.503Z,24.30
2022-09-16T03:42:14.436Z,24.00
2022-09-16T03:45:03.690Z,23.60
2022-09-16T03:47:54.525Z,23.50
2022-09-16T03:50:46.230Z,23.40
2022-09-16T03:53:35.672Z,23.40
2022-09-16T03:56:25.794Z,23.50
2022-09-16T03:59:14.610Z,23.70
2022-09-16T04:02:04.175Z,23.70
2022-09-16T04:04:53.681Z,23.70
2022-09-16T04:07:44.290Z,23.70
2022-09-16T04:10:34.853Z,23.80
2022-09-16T04:13:24.450Z,23.90
2022-09-16T04:16:13.882Z,23.70
2022-09-16T04:19:03.075Z,23.70
2022-09-16T04:21:52.157Z,23.70
2022-09-16T04:24:42.922Z,23.80
2022-09-16T04:27:32.286Z,23.80
2022-09-16T04:30:21.765Z,23.60
2022-09-16T04:33:10.680Z,23.50
2022-09-16T04:36:05.798Z,23.50
2022-09-16T04:38:55.041Z,23.60
2022-09-16T04:44:36.045Z,23.30
2022-09-16T04:47:25.380Z,23.20
2022-09-16T04:50:14.588Z,23.40
2022-09-16T04:53:03.453Z,23.50
2022-09-16T04:55:52.490Z,23.20
2022-09-16T04:58:43.212Z,22.60
2022-09-16T05:01:34.129Z,22.60
2022-09-16T05:04:24.058Z,22.80
2022-09-16T05:07:13.443Z,22.90
2022-09-16T05:10:03.001Z,23.00
2022-09-16T05:12:53.228Z,22.90
2022-09-16T05:15:47.569Z,22.70
2022-09-16T05:18:40.759Z,22.60
2022-09-16T05:58:17.529Z,22.20
2022-09-16T06:01:08.021Z,22.20
2022-09-16T06:03:57.132Z,22.30
2022-09-16T06:06:49.165Z,22.40
2022-09-16T06:09:38.367Z,22.40
2022-09-16T06:12:26.771Z,22.50
2022-09-16T06:15:16.156Z,22.60
2022-09-16T06:18:06.532Z,22.80
2022-09-16T06:20:55.920Z,23.00
2022-09-16T06:23:46.301Z,23.20
2022-09-16T06:26:35.527Z,23.30
2022-09-16T06:29:25.325Z,23.30
2022-09-16T06:32:14.394Z,23.50
2022-09-16T06:35:03.333Z,23.70
2022-09-16T06:37:52.510Z,23.80
2022-09-16T06:40:43.701Z,23.90
2022-09-16T06:43:33.420Z,23.90
2022-09-16T06:46:24.298Z,24.00
2022-09-16T06:49:14.271Z,24.00
2022-09-16T06:52:03.762Z,24.00
2022-09-16T06:54:53.461Z,24.10
2022-09-16T06:57:44.338Z,24.20
2022-09-16T07:00:33.185Z,24.20
2022-09-16T07:03:22.542Z,24.40
2022-09-16T07:06:13.452Z,24.40
2022-09-16T07:09:02.043Z,24.40
2022-09-16T07:11:51.214Z,24.50
2022-09-16T07:14:41.330Z,24.60
2022-09-16T07:17:30.453Z,24.60
2022-09-16T07:20:19.742Z,24.70
2022-09-16T07:23:09.058Z,24.70
2022-09-16T07:26:02.975Z,24.80
2022-09-16T07:28:52.483Z,24.90
2022-09-16T07:31:43.466Z,24.90
2022-09-16T07:34:32.803Z,24.90
2022-09-16T07:37:22.365Z,24.80
2022-09-16T07:40:13.563Z,24.80
2022-09-16T07:43:03.245Z,24.80
2022-09-16T07:45:58.151Z,24.90
2022-09-16T07:48:50.899Z,24.90
2022-09-16T07:51:39.772Z,25.00
2022-09-16T07:54:28.869Z,25.00
2022-09-16T07:57:18.463Z,25.10
2022-09-16T08:00:08.084Z,25.10
2022-09-16T08:02:58.400Z,25.10
2022-09-16T08:05:48.270Z,25.30
2022-09-16T08:08:36.969Z,25.40
2022-09-16T08:11:27.252Z,25.50
2022-09-16T08:14:15.699Z,25.60
2022-09-16T08:17:04.163Z,25.60
2022-09-16T08:19:52.598Z,25.70
2022-09-16T08:22:42.683Z,25.50
2022-09-16T08:25:31.813Z,25.80
2022-09-16T08:28:21.202Z,25.80
2022-09-16T08:31:10.572Z,25.80
2022-09-16T08:34:00.243Z,25.80
2022-09-16T08:36:49.002Z,26.00
2022-09-16T08:39:39.988Z,26.00
2022-09-16T08:42:40.729Z,26.00
2022-09-16T08:45:36.471Z,26.20
2022-09-16T08:48:36.014Z,26.20
2022-09-16T08:51:26.142Z,26.30
2022-09-16T08:54:28.619Z,26.30
2022-09-16T08:57:22.828Z,26.40
2022-09-16T09:00:16.585Z,26.40
2022-09-16T09:03:15.966Z,26.40
2022-09-16T09:06:16.130Z,26.30
2022-09-16T09:09:15.674Z,26.50
2022-09-16T09:12:13.178Z,26.50
2022-09-16T09:15:23.795Z,26.60
2022-09-16T09:18:26.141Z,26.70
2022-09-16T09:21:27.164Z,26.80
2022-09-16T09:24:32.319Z,26.90
2022-09-16T09:27:28.662Z,27.00
2022-09-16T09:30:23.446Z,27.10
2022-09-16T09:33:45.078Z,27.20
2022-09-16T09:36:44.037Z,27.30
2022-09-16T09:42:31.151Z,27.50
2022-09-16T09:45:27.690Z,27.60
2022-09-16T09:48:23.594Z,27.60
2022-09-16T09:51:19.440Z,27.70
2022-09-16T09:54:24.611Z,27.70
2022-09-16T09:57:17.808Z,27.80
2022-09-16T10:03:07.855Z,28.10
2022-09-16T10:05:56.305Z,28.20
2022-09-16T10:08:48.088Z,28.10
2022-09-16T10:11:48.772Z,28.00
2022-09-16T10:14:39.312Z,28.00
2022-09-16T10:20:28.447Z,28.30
2022-09-16T10:23:23.530Z,28.50
2022-09-16T10:26:21.769Z,28.80
2022-09-16T10:29:17.722Z,28.90
2022-09-16T10:32:10.647Z,28.90
2022-09-16T10:34:59.183Z,28.90
2022-09-16T10:37:53.899Z,29.00
2022-09-16T10:40:52.941Z,29.20
2022-09-16T10:43:50.273Z,29.50
2022-09-16T10:46:39.064Z,29.50
2022-09-16T10:49:41.455Z,29.60
2022-09-16T10:52:31.388Z,29.80
2022-09-16T10:55:29.768Z,30.00
2022-09-16T10:58:19.399Z,30.00
2022-09-16T11:01:30.395Z,29.90
2022-09-16T11:04:44.512Z,29.50
2022-09-16T11:07:42.554Z,29.60
2022-09-16T11:10:40.533Z,29.90
2022-09-16T11:13:39.666Z,30.00
2022-09-16T11:16:45.930Z,30.00
2022-09-16T11:19:45.606Z,30.30
2022-09-16T11:22:44.036Z,30.60
2022-09-16T11:25:45.494Z,30.90
2022-09-16T11:56:08.216Z,32.80
2022-09-16T11:59:02.883Z,32.90
2022-09-16T12:01:56.200Z,32.90
2022-09-16T12:07:39.485Z,33.10
2022-09-16T12:10:33.737Z,33.10
2022-09-16T12:13:30.914Z,33.10
2022-09-16T12:16:28.159Z,33.20
2022-09-16T12:19:24.663Z,33.00
2022-09-16T12:22:18.878Z,32.60
2022-09-16T12:25:12.373Z,32.00
2022-09-16T12:28:04.908Z,31.60
2022-09-16T12:33:54.464Z,30.70
2022-09-16T12:39:35.710Z,30.00
2022-09-16T12:42:55.416Z,29.70
2022-09-16T12:46:35.378Z,29.60
2022-09-16T12:49:50.730Z,29.20
2022-09-16T12:53:19.426Z,29.10
2022-09-16T12:59:24.580Z,27.80
2022-09-16T13:02:21.077Z,28.30
2022-09-16T13:05:19.977Z,28.10
2022-09-16T13:08:23.755Z,27.90
2022-09-16T13:12:16.613Z,27.50
2022-09-16T13:26:07.409Z,25.70
2022-09-16T13:28:58.159Z,25.50
2022-09-16T13:31:49.884Z,25.70
2022-09-16T13:55:08.861Z,25.50
2022-09-16T13:58:06.961Z,25.70
2022-09-16T14:01:06.060Z,25.90
2022-09-16T14:04:03.142Z,26.00
2022-09-16T14:07:10.095Z,26.10
2022-09-16T14:13:01.548Z,26.30
2022-09-16T14:15:52.795Z,26.40
2022-09-16T14:18:45.753Z,26.20
2022-09-16T14:27:22.847Z,26.70
2022-09-16T14:30:18.224Z,26.50
2022-09-16T14:33:08.824Z,26.20
2022-09-16T14:35:58.796Z,26.20
2022-09-16T14:38:51.026Z,26.10
2022-09-16T14:41:45.974Z,26.00
2022-09-16T14:44:38.326Z,26.10
2022-09-16T14:47:50.760Z,26.20
2022-09-16T14:50:43.045Z,26.40
2022-09-16T14:53:36.489Z,26.60
2022-09-16T14:59:18.032Z,27.00
2022-09-16T15:02:14.423Z,27.10
2022-09-16T15:05:17.224Z,27.10
2022-09-16T15:08:14.409Z,27.10
2022-09-16T15:11:24.546Z,27.10
2022-09-16T15:14:23.444Z,27.10
2022-09-16T15:17:19.617Z,27.10
2022-09-16T15:20:22.128Z,27.10
2022-09-16T15:23:24.687Z,27.10
2022-09-16T15:26:17.193Z,27.20
2022-09-16T15:29:08.589Z,27.10
2022-09-16T15:32:08.486Z,27.10
2022-09-16T15:35:12.781Z,27.10
2022-09-16T15:38:12.582Z,27.10
2022-09-16T15:41:05.685Z,27.10
2022-09-16T15:43:54.531Z,27.10
2022-09-16T15:46:47.936Z,27.10
2022-09-16T15:49:41.633Z,27.10
2022-09-16T15:52:34.207Z,27.10
2022-09-16T15:55:31.436Z,27.10
2022-09-16T15:58:25.255Z,27.10
2022-09-16T16:01:17.981Z,27.10
2022-09-16T16:04:10.123Z,27.10
2022-09-16T16:07:02.084Z,27.10
2022-09-16T16:09:54.736Z,27.00
2022-09-16T16:12:46.107Z,27.00
2022-09-16T16:15:38.160Z,27.00
2022-09-16T16:18:27.385Z,26.80
2022-09-16T16:21:17.930Z,26.70
2022-09-16T16:24:08.612Z,26.80
2022-09-16T16:26:57.789Z,26.80
2022-09-16T16:29:46.694Z,26.70
2022-09-16T16:32:36.218Z,26.70
2022-09-16T16:35:25.245Z,26.70
2022-09-16T16:38:14.210Z,26.60
2022-09-16T16:41:04.724Z,26.50
2022-09-16T16:43:53.950Z,26.40
2022-09-16T16:46:43.709Z,26.40
2022-09-16T16:49:34.163Z,26.40
2022-09-16T16:52:23.362Z,26.40
2022-09-16T16:55:12.333Z,26.30
2022-09-16T16:58:02.941Z,26.20
2022-09-16T17:00:51.806Z,26.30
2022-09-16T17:03:41.548Z,26.30
2022-09-16T17:06:31.365Z,26.40
2022-09-16T17:09:20.890Z,26.40
2022-09-16T17:12:13.136Z,26.40
2022-09-16T17:15:04.016Z,26.40
2022-09-16T17:17:53.251Z,26.40
2022-09-16T17:20:42.686Z,26.30
2022-09-16T17:23:31.594Z,26.20
2022-09-16T17:26:21.400Z,26.20
2022-09-16T17:29:15.617Z,26.20
2022-09-16T17:32:08.429Z,26.20
2022-09-16T17:34:58.240Z,26.10
2022-09-16T17:37:48.484Z,26.00
2022-09-16T17:40:37.858Z,26.00
2022-09-16T17:43:32.000Z,26.00
2022-09-16T17:46:23.473Z,25.90
2022-09-16T17:49:16.793Z,25.90
2022-09-16T17:52:06.082Z,25.90
2022-09-16T17:54:55.044Z,25.90
2022-09-16T17:57:43.989Z,25.90
2022-09-16T18:00:33.414Z,25.90
2022-09-16T18:03:23.091Z,25.80
2022-09-16T18:06:15.998Z,25.70
2022-09-16T18:09:07.507Z,25.70
2022-09-16T18:11:58.606Z,25.60
2022-09-16T18:14:47.745Z,25.70
2022-09-16T18:17:36.803Z,25.70
2022-09-16T18:20:26.174Z,25.70
2022-09-16T18:23:17.038Z,25.80
2022-09-16T18:26:07.549Z,25.70
2022-09-16T18:29:09.649Z,25.60
2022-09-16T18:32:00.343Z,25.60
2022-09-16T18:34:49.788Z,25.60
2022-09-16T18:37:38.795Z,25.60
2022-09-16T18:40:29.643Z,25.70
2022-09-16T18:43:18.653Z,25.60
2022-09-16T18:46:13.152Z,25.50
2022-09-16T18:49:02.826Z,25.40
2022-09-16T18:51:53.103Z,25.30
2022-09-16T18:54:44.093Z,25.30
2022-09-16T18:57:34.206Z,25.20
2022-09-16T19:00:23.108Z,25.20
2022-09-16T19:03:12.173Z,25.20
2022-09-16T19:06:01.091Z,25.20
2022-09-16T19:08:50.809Z,25.10
2022-09-16T19:11:40.757Z,25.10
2022-09-16T19:14:31.918Z,25.20
2022-09-16T19:17:21.033Z,25.00
2022-09-16T19:20:10.579Z,25.00
2022-09-16T19:22:59.746Z,25.00
2022-09-16T19:25:49.093Z,24.90
2022-09-16T19:28:39.012Z,24.80
2022-09-16T19:31:31.792Z,24.80
2022-09-16T19:34:22.125Z,24.70
2022-09-16T19:40:01.332Z,24.60
2022-09-16T19:42:50.583Z,24.50
2022-09-16T19:45:40.676Z,24.60
2022-09-16T19:48:32.623Z,24.50
2022-09-16T19:51:23.893Z,24.50
2022-09-16T19:54:13.717Z,24.40
2022-09-16T19:57:02.893Z,24.40
2022-09-16T19:59:52.459Z,24.40
2022-09-16T20:02:52.964Z,24.50
2022-09-16T20:05:42.941Z,24.40
2022-09-16T20:08:32.799Z,24.40
2022-09-16T20:11:23.168Z,24.50
2022-09-16T20:14:16.624Z,24.40
2022-09-16T20:17:05.848Z,24.30
2022-09-16T20:19:54.813Z,24.30
2022-09-16T20:22:45.471Z,24.30
2022-09-16T20:25:34.123Z,24.30
2022-09-16T20:28:24.256Z,24.20
2022-09-16T20:31:14.950Z,24.20
2022-09-16T20:34:04.492Z,24.30
2022-09-16T20:36:53.870Z,24.30
2022-09-16T20:39:44.966Z,24.40
2022-09-16T20:42:34.531Z,24.40
2022-09-16T20:45:24.871Z,24.40
2022-09-16T20:48:14.426Z,24.30
2022-09-16T20:51:08.290Z,24.30
2022-09-16T20:54:00.843Z,24.20
2022-09-16T20:56:54.434Z,24.20
2022-09-16T20:59:43.979Z,24.30
2022-09-16T21:02:35.211Z,24.20
2022-09-16T21:05:24.325Z,24.20
2022-09-16T21:08:13.632Z,24.30
2022-09-16T21:11:06.587Z,24.30
2022-09-16T21:13:58.496Z,24.40
2022-09-16T21:16:49.699Z,24.40
2022-09-16T21:19:39.089Z,24.40
2022-09-16T21:22:28.152Z,24.40
2022-09-16T21:25:17.760Z,24.40
2022-09-16T21:28:08.978Z,24.40
2022-09-16T21:31:03.885Z,24.40
2022-09-16T21:33:53.489Z,24.30
2022-09-16T21:36:44.966Z,24.10
2022-09-16T21:39:34.631Z,24.10
2022-09-16T21:42:24.030Z,24.10
2022-09-16T21:45:13.576Z,24.20
2022-09-16T21:48:04.299Z,24.10
2022-09-16T21:50:54.572Z,24.20
2022-09-16T21:53:44.531Z,24.10
2022-09-16T21:56:34.140Z,24.10
2022-09-16T21:59:23.929Z,24.10
2022-09-16T22:02:12.765Z,24.00
2022-09-16T22:05:03.395Z,23.90
2022-09-16T22:07:52.461Z,23.90
2022-09-16T22:10:41.513Z,24.00
2022-09-16T22:13:31.954Z,23.90
2022-09-16T22:16:27.267Z,24.00
2022-09-16T22:19:18.269Z,24.10
2022-09-16T22:22:08.881Z,24.20
2022-09-16T22:24:57.852Z,24.20
2022-09-16T22:27:47.371Z,24.20
2022-09-16T22:30:36.129Z,24.30
2022-09-16T22:33:25.755Z,24.40
2022-09-16T22:36:19.282Z,24.30
2022-09-16T22:39:14.151Z,24.10
2022-09-16T22:42:03.439Z,24.10
2022-09-16T22:44:52.946Z,24.00
2022-09-16T22:47:41.824Z,23.90
2022-09-16T22:50:31.151Z,24.00
2022-09-16T22:53:20.252Z,23.90
2022-09-16T22:56:14.201Z,23.90
2022-09-16T22:59:04.724Z,23.90
2022-09-16T23:01:54.666Z,23.90
2022-09-16T23:04:43.224Z,23.80
2022-09-16T23:07:35.177Z,23.90
2022-09-16T23:10:24.053Z,23.80
2022-09-16T23:13:14.855Z,23.80
2022-09-16T23:16:05.537Z,23.80
2022-09-16T23:18:56.509Z,23.80
2022-09-16T23:21:46.008Z,23.80
2022-09-16T23:24:35.106Z,23.60
2022-09-16T23:27:24.417Z,23.50
2022-09-16T23:30:15.497Z,23.40
2022-09-16T23:33:04.571Z,23.30
2022-09-16T23:38:44.023Z,23.10
2022-09-16T23:41:33.164Z,23.00
2022-09-16T23:44:22.896Z,22.90
2022-09-16T23:47:15.191Z,22.90
2022-09-16T23:50:04.762Z,22.80
2022-09-16T23:55:44.087Z,22.60
2022-09-16T23:58:33.153Z,22.60
